METAR AND TAF INFORMATION
METAR FOR SKPS
ADDS - METARS form results

(1735 UTC 24 May 2017)
Data provider http://aviationweather.gov/adds/metars/
 
METAR text: SKPS 241700Z 15013KT 9999 BKN027 26/11 A3018
Conditions at: SKPS (PASTO/ANTONIO NA, CO) observed 1700 UTC 24 May 2017
Temperature: 26.0°C (79°F)
Dewpoint: 11.0°C (52°F) [RH = 39%]
Pressure (altimeter): 30.18 inches Hg (1022.1 mb)
Winds: from the SSE (150 degrees) at 15 MPH (13 knots; 6.8 m/s)
Visibility: 6 or more miles (10+ km)
Ceiling: 2700 feet AGL
Clouds: broken clouds at 2700 feet AGL
Weather: no significant weather observed at this time

 AIRPORT MAP

 RUNWAY INFORMATION
Runway 02 Runway length 7585 ft Runway width 130 ft
Runway elevation 5840 ft Runway displaced threshold 200 ft Runway heading 16
Runway 20 Runway length 7585 ft Runway width 130 ft
Runway elevation 5840 ft Runway displaced threshold 170 ft Runway heading 196

 AIRPORT FREQUENCIES
Type RDO Name PASTO RDO Frequency 348.8 MHZ
Type TWR Name TWR Frequency 118 MHZ

 AIRPORT NEAR NAVIGATION AIDS
Type VOR-DME Name Pasto Frequency 113400 KHZ
Type NDB Name Pasto Frequency 264 KHZ



v2.6.1